sensor_id;sensor_type;location;lat;lon;timestamp;P1;durP1;ratioP1;P2;durP2;ratioP2
19848;SDS011;10085;51.120;6.956;2022-08-20T00:02:51;5.03;;;3.17;;
19848;SDS011;10085;51.120;6.956;2022-08-20T00:07:56;6.10;;;3.25;;
19848;SDS011;10085;51.120;6.956;2022-08-20T00:13:00;6.80;;;3.50;;
19848;SDS011;10085;51.120;6.956;2022-08-20T00:18:04;5.05;;;2.67;;
19848;SDS011;10085;51.120;6.956;2022-08-20T00:23:08;5.55;;;3.20;;
19848;SDS011;10085;51.120;6.956;2022-08-20T00:28:12;5.68;;;4.07;;
19848;SDS011;10085;51.120;6.956;2022-08-20T00:33:18;6.00;;;2.70;;
19848;SDS011;10085;51.120;6.956;2022-08-20T00:38:23;4.65;;;3.20;;
19848;SDS011;10085;51.120;6.956;2022-08-20T00:43:29;9.70;;;5.85;;
19848;SDS011;10085;51.120;6.956;2022-08-20T00:48:35;8.18;;;4.45;;
19848;SDS011;10085;51.120;6.956;2022-08-20T00:53:40;7.50;;;4.50;;
19848;SDS011;10085;51.120;6.956;2022-08-20T00:58:43;7.57;;;4.03;;
19848;SDS011;10085;51.120;6.956;2022-08-20T01:03:46;6.32;;;3.80;;
19848;SDS011;10085;51.120;6.956;2022-08-20T01:08:50;6.60;;;4.70;;
19848;SDS011;10085;51.120;6.956;2022-08-20T01:13:53;5.88;;;4.07;;
19848;SDS011;10085;51.120;6.956;2022-08-20T01:18:57;8.95;;;5.60;;
19848;SDS011;10085;51.120;6.956;2022-08-20T01:24:04;9.80;;;5.55;;
19848;SDS011;10085;51.120;6.956;2022-08-20T01:29:17;6.25;;;3.38;;
19848;SDS011;10085;51.120;6.956;2022-08-20T01:34:22;4.25;;;2.88;;
19848;SDS011;10085;51.120;6.956;2022-08-20T01:39:25;9.02;;;5.35;;
19848;SDS011;10085;51.120;6.956;2022-08-20T01:44:32;10.00;;;6.18;;
19848;SDS011;10085;51.120;6.956;2022-08-20T01:49:38;8.77;;;6.03;;
19848;SDS011;10085;51.120;6.956;2022-08-20T01:54:44;11.35;;;6.50;;
19848;SDS011;10085;51.120;6.956;2022-08-20T01:59:49;8.43;;;5.57;;
19848;SDS011;10085;51.120;6.956;2022-08-20T02:04:51;10.02;;;6.60;;
19848;SDS011;10085;51.120;6.956;2022-08-20T02:09:54;12.23;;;7.13;;
19848;SDS011;10085;51.120;6.956;2022-08-20T02:14:58;11.65;;;7.53;;
19848;SDS011;10085;51.120;6.956;2022-08-20T02:20:02;10.68;;;6.65;;
19848;SDS011;10085;51.120;6.956;2022-08-20T02:25:08;8.82;;;5.05;;
19848;SDS011;10085;51.120;6.956;2022-08-20T02:30:16;10.32;;;6.13;;
19848;SDS011;10085;51.120;6.956;2022-08-20T02:35:28;14.63;;;8.02;;
19848;SDS011;10085;51.120;6.956;2022-08-20T02:40:34;12.13;;;7.18;;
19848;SDS011;10085;51.120;6.956;2022-08-20T02:45:39;14.63;;;7.70;;
19848;SDS011;10085;51.120;6.956;2022-08-20T02:50:45;11.38;;;7.00;;
19848;SDS011;10085;51.120;6.956;2022-08-20T02:55:49;14.05;;;7.25;;
19848;SDS011;10085;51.120;6.956;2022-08-20T03:00:53;11.93;;;7.68;;
19848;SDS011;10085;51.120;6.956;2022-08-20T03:05:57;12.90;;;8.18;;
19848;SDS011;10085;51.120;6.956;2022-08-20T03:11:00;14.20;;;8.57;;
19848;SDS011;10085;51.120;6.956;2022-08-20T03:16:05;13.88;;;8.55;;
19848;SDS011;10085;51.120;6.956;2022-08-20T03:21:09;16.90;;;9.45;;
19848;SDS011;10085;51.120;6.956;2022-08-20T03:26:15;12.80;;;8.23;;
19848;SDS011;10085;51.120;6.956;2022-08-20T03:31:19;18.75;;;10.02;;
19848;SDS011;10085;51.120;6.956;2022-08-20T03:36:21;17.70;;;10.02;;
19848;SDS011;10085;51.120;6.956;2022-08-20T03:41:28;19.88;;;10.60;;
19848;SDS011;10085;51.120;6.956;2022-08-20T03:46:33;15.75;;;9.15;;
19848;SDS011;10085;51.120;6.956;2022-08-20T03:51:36;20.08;;;11.15;;
19848;SDS011;10085;51.120;6.956;2022-08-20T03:56:58;15.35;;;9.23;;
19848;SDS011;10085;51.120;6.956;2022-08-20T04:02:14;19.67;;;10.40;;
19848;SDS011;10085;51.120;6.956;2022-08-20T04:07:18;18.88;;;10.93;;
19848;SDS011;10085;51.120;6.956;2022-08-20T04:12:25;18.55;;;10.05;;
19848;SDS011;10085;51.120;6.956;2022-08-20T04:17:29;14.65;;;9.00;;
19848;SDS011;10085;51.120;6.956;2022-08-20T04:22:33;20.02;;;11.52;;
19848;SDS011;10085;51.120;6.956;2022-08-20T04:27:39;19.17;;;10.10;;
19848;SDS011;10085;51.120;6.956;2022-08-20T04:32:43;17.38;;;9.55;;
19848;SDS011;10085;51.120;6.956;2022-08-20T04:37:46;15.90;;;7.97;;
19848;SDS011;10085;51.120;6.956;2022-08-20T04:42:49;19.25;;;10.32;;
19848;SDS011;10085;51.120;6.956;2022-08-20T04:47:55;18.70;;;8.90;;
19848;SDS011;10085;51.120;6.956;2022-08-20T04:52:58;19.25;;;10.02;;
19848;SDS011;10085;51.120;6.956;2022-08-20T04:58:02;13.88;;;7.85;;
19848;SDS011;10085;51.120;6.956;2022-08-20T05:03:07;16.35;;;8.75;;
19848;SDS011;10085;51.120;6.956;2022-08-20T05:08:10;17.00;;;8.15;;
19848;SDS011;10085;51.120;6.956;2022-08-20T05:13:20;18.48;;;9.23;;
19848;SDS011;10085;51.120;6.956;2022-08-20T05:18:29;19.60;;;9.43;;
19848;SDS011;10085;51.120;6.956;2022-08-20T05:23:33;16.35;;;8.40;;
19848;SDS011;10085;51.120;6.956;2022-08-20T05:28:38;12.63;;;6.65;;
19848;SDS011;10085;51.120;6.956;2022-08-20T05:34:00;7.25;;;4.68;;
19848;SDS011;10085;51.120;6.956;2022-08-20T05:39:03;13.13;;;7.35;;
19848;SDS011;10085;51.120;6.956;2022-08-20T05:44:06;11.73;;;6.50;;
19848;SDS011;10085;51.120;6.956;2022-08-20T05:49:16;10.77;;;7.05;;
19848;SDS011;10085;51.120;6.956;2022-08-20T05:54:20;10.82;;;6.40;;
19848;SDS011;10085;51.120;6.956;2022-08-20T05:59:24;10.10;;;6.15;;
19848;SDS011;10085;51.120;6.956;2022-08-20T06:04:30;11.95;;;6.50;;
19848;SDS011;10085;51.120;6.956;2022-08-20T06:09:34;11.25;;;6.90;;
19848;SDS011;10085;51.120;6.956;2022-08-20T06:14:37;11.00;;;7.07;;
19848;SDS011;10085;51.120;6.956;2022-08-20T06:19:41;9.32;;;6.28;;
19848;SDS011;10085;51.120;6.956;2022-08-20T06:24:47;11.48;;;7.25;;
19848;SDS011;10085;51.120;6.956;2022-08-20T06:29:50;12.02;;;6.28;;
19848;SDS011;10085;51.120;6.956;2022-08-20T06:34:54;12.68;;;7.95;;
19848;SDS011;10085;51.120;6.956;2022-08-20T06:39:59;8.90;;;5.55;;
19848;SDS011;10085;51.120;6.956;2022-08-20T06:45:03;7.75;;;5.55;;
19848;SDS011;10085;51.120;6.956;2022-08-20T06:50:08;6.40;;;4.60;;
19848;SDS011;10085;51.120;6.956;2022-08-20T06:55:12;6.50;;;4.65;;
19848;SDS011;10085;51.120;6.956;2022-08-20T07:00:18;8.25;;;5.90;;
19848;SDS011;10085;51.120;6.956;2022-08-20T07:05:22;9.07;;;5.90;;
19848;SDS011;10085;51.120;6.956;2022-08-20T07:10:25;6.50;;;4.43;;
19848;SDS011;10085;51.120;6.956;2022-08-20T07:15:28;6.82;;;4.82;;
19848;SDS011;10085;51.120;6.956;2022-08-20T07:20:35;7.25;;;4.10;;
19848;SDS011;10085;51.120;6.956;2022-08-20T07:25:38;16.00;;;9.30;;
19848;SDS011;10085;51.120;6.956;2022-08-20T07:30:42;13.73;;;7.55;;
19848;SDS011;10085;51.120;6.956;2022-08-20T07:36:14;20.08;;;10.70;;
19848;SDS011;10085;51.120;6.956;2022-08-20T07:41:18;25.85;;;12.90;;
19848;SDS011;10085;51.120;6.956;2022-08-20T07:46:21;23.33;;;12.68;;
19848;SDS011;10085;51.120;6.956;2022-08-20T07:51:32;29.10;;;13.30;;
19848;SDS011;10085;51.120;6.956;2022-08-20T07:56:36;26.35;;;13.85;;
19848;SDS011;10085;51.120;6.956;2022-08-20T08:01:39;19.08;;;10.75;;
19848;SDS011;10085;51.120;6.956;2022-08-20T08:06:43;20.05;;;10.88;;
19848;SDS011;10085;51.120;6.956;2022-08-20T08:11:47;24.13;;;12.25;;
19848;SDS011;10085;51.120;6.956;2022-08-20T08:16:51;17.73;;;9.27;;
19848;SDS011;10085;51.120;6.956;2022-08-20T08:21:56;24.27;;;13.05;;
19848;SDS011;10085;51.120;6.956;2022-08-20T08:26:59;23.15;;;12.10;;
19848;SDS011;10085;51.120;6.956;2022-08-20T08:32:02;22.88;;;10.95;;
19848;SDS011;10085;51.120;6.956;2022-08-20T08:37:07;27.05;;;13.68;;
19848;SDS011;10085;51.120;6.956;2022-08-20T08:42:14;16.63;;;10.10;;
19848;SDS011;10085;51.120;6.956;2022-08-20T08:47:24;20.25;;;11.02;;
19848;SDS011;10085;51.120;6.956;2022-08-20T08:52:31;24.67;;;12.95;;
19848;SDS011;10085;51.120;6.956;2022-08-20T08:57:36;19.75;;;11.65;;
19848;SDS011;10085;51.120;6.956;2022-08-20T09:02:38;21.70;;;12.20;;
19848;SDS011;10085;51.120;6.956;2022-08-20T09:07:45;28.10;;;14.00;;
19848;SDS011;10085;51.120;6.956;2022-08-20T09:12:51;17.02;;;9.10;;
19848;SDS011;10085;51.120;6.956;2022-08-20T09:17:54;18.50;;;10.48;;
19848;SDS011;10085;51.120;6.956;2022-08-20T09:23:01;16.98;;;10.15;;
19848;SDS011;10085;51.120;6.956;2022-08-20T09:28:06;21.73;;;10.25;;
19848;SDS011;10085;51.120;6.956;2022-08-20T09:33:09;25.05;;;12.55;;
19848;SDS011;10085;51.120;6.956;2022-08-20T09:38:14;21.08;;;11.10;;
19848;SDS011;10085;51.120;6.956;2022-08-20T09:43:17;25.27;;;12.30;;
19848;SDS011;10085;51.120;6.956;2022-08-20T09:48:19;14.93;;;9.07;;
19848;SDS011;10085;51.120;6.956;2022-08-20T09:53:33;20.13;;;9.80;;
19848;SDS011;10085;51.120;6.956;2022-08-20T09:58:37;19.98;;;8.80;;
19848;SDS011;10085;51.120;6.956;2022-08-20T10:03:47;25.65;;;12.48;;
19848;SDS011;10085;51.120;6.956;2022-08-20T10:08:51;24.02;;;11.27;;
19848;SDS011;10085;51.120;6.956;2022-08-20T10:13:54;22.23;;;9.98;;
19848;SDS011;10085;51.120;6.956;2022-08-20T10:18:57;20.50;;;10.52;;
19848;SDS011;10085;51.120;6.956;2022-08-20T10:24:01;19.00;;;10.10;;
19848;SDS011;10085;51.120;6.956;2022-08-20T10:29:04;12.85;;;6.82;;
19848;SDS011;10085;51.120;6.956;2022-08-20T10:34:07;18.48;;;9.65;;
19848;SDS011;10085;51.120;6.956;2022-08-20T10:39:11;16.48;;;8.27;;
19848;SDS011;10085;51.120;6.956;2022-08-20T10:44:14;19.70;;;10.38;;
19848;SDS011;10085;51.120;6.956;2022-08-20T10:49:17;16.50;;;8.00;;
19848;SDS011;10085;51.120;6.956;2022-08-20T10:54:22;17.85;;;9.27;;
19848;SDS011;10085;51.120;6.956;2022-08-20T10:59:25;13.43;;;7.25;;
19848;SDS011;10085;51.120;6.956;2022-08-20T11:04:27;15.57;;;8.27;;
19848;SDS011;10085;51.120;6.956;2022-08-20T11:09:32;12.15;;;6.70;;
19848;SDS011;10085;51.120;6.956;2022-08-20T11:14:34;10.07;;;6.07;;
19848;SDS011;10085;51.120;6.956;2022-08-20T11:19:38;12.10;;;7.25;;
19848;SDS011;10085;51.120;6.956;2022-08-20T11:24:43;12.63;;;6.18;;
19848;SDS011;10085;51.120;6.956;2022-08-20T11:29:47;18.17;;;7.38;;
19848;SDS011;10085;51.120;6.956;2022-08-20T11:34:50;19.40;;;9.25;;
19848;SDS011;10085;51.120;6.956;2022-08-20T11:39:54;14.13;;;7.07;;
19848;SDS011;10085;51.120;6.956;2022-08-20T11:44:57;16.15;;;8.25;;
19848;SDS011;10085;51.120;6.956;2022-08-20T11:50:00;18.77;;;8.93;;
19848;SDS011;10085;51.120;6.956;2022-08-20T11:55:07;13.90;;;7.18;;
19848;SDS011;10085;51.120;6.956;2022-08-20T12:00:13;14.52;;;6.95;;
19848;SDS011;10085;51.120;6.956;2022-08-20T12:05:18;13.82;;;7.78;;
19848;SDS011;10085;51.120;6.956;2022-08-20T12:10:23;12.85;;;6.93;;
19848;SDS011;10085;51.120;6.956;2022-08-20T12:15:27;11.23;;;5.85;;
19848;SDS011;10085;51.120;6.956;2022-08-20T12:20:30;13.77;;;7.40;;
19848;SDS011;10085;51.120;6.956;2022-08-20T12:25:34;10.52;;;6.32;;
19848;SDS011;10085;51.120;6.956;2022-08-20T12:30:36;9.60;;;5.82;;
19848;SDS011;10085;51.120;6.956;2022-08-20T12:35:39;11.73;;;6.18;;
19848;SDS011;10085;51.120;6.956;2022-08-20T12:40:44;12.35;;;6.93;;
19848;SDS011;10085;51.120;6.956;2022-08-20T12:45:46;11.55;;;6.60;;
19848;SDS011;10085;51.120;6.956;2022-08-20T12:50:49;16.42;;;7.55;;
19848;SDS011;10085;51.120;6.956;2022-08-20T12:55:54;13.48;;;6.45;;
19848;SDS011;10085;51.120;6.956;2022-08-20T13:00:57;10.85;;;6.60;;
19848;SDS011;10085;51.120;6.956;2022-08-20T13:06:00;13.40;;;6.80;;
19848;SDS011;10085;51.120;6.956;2022-08-20T13:11:04;13.98;;;6.75;;
19848;SDS011;10085;51.120;6.956;2022-08-20T13:16:07;12.32;;;6.35;;
19848;SDS011;10085;51.120;6.956;2022-08-20T13:21:10;13.65;;;5.97;;
19848;SDS011;10085;51.120;6.956;2022-08-20T13:26:14;12.13;;;6.60;;
19848;SDS011;10085;51.120;6.956;2022-08-20T13:31:16;15.45;;;7.00;;
19848;SDS011;10085;51.120;6.956;2022-08-20T13:36:20;9.55;;;5.50;;
19848;SDS011;10085;51.120;6.956;2022-08-20T13:41:24;15.45;;;7.53;;
19848;SDS011;10085;51.120;6.956;2022-08-20T13:46:27;14.00;;;6.70;;
19848;SDS011;10085;51.120;6.956;2022-08-20T13:51:30;12.30;;;6.72;;
19848;SDS011;10085;51.120;6.956;2022-08-20T13:56:34;12.93;;;7.63;;
19848;SDS011;10085;51.120;6.956;2022-08-20T14:01:37;10.52;;;6.82;;
19848;SDS011;10085;51.120;6.956;2022-08-20T14:06:40;10.63;;;6.32;;
19848;SDS011;10085;51.120;6.956;2022-08-20T14:11:44;13.75;;;6.53;;
19848;SDS011;10085;51.120;6.956;2022-08-20T14:16:47;9.75;;;6.25;;
19848;SDS011;10085;51.120;6.956;2022-08-20T14:21:49;13.07;;;6.75;;
19848;SDS011;10085;51.120;6.956;2022-08-20T14:26:54;10.45;;;6.25;;
19848;SDS011;10085;51.120;6.956;2022-08-20T14:31:56;11.40;;;5.80;;
19848;SDS011;10085;51.120;6.956;2022-08-20T14:37:08;11.90;;;5.97;;
19848;SDS011;10085;51.120;6.956;2022-08-20T14:42:13;11.65;;;6.32;;
19848;SDS011;10085;51.120;6.956;2022-08-20T14:47:17;9.77;;;6.03;;
19848;SDS011;10085;51.120;6.956;2022-08-20T14:52:21;10.30;;;5.85;;
19848;SDS011;10085;51.120;6.956;2022-08-20T14:57:30;13.80;;;5.78;;
19848;SDS011;10085;51.120;6.956;2022-08-20T15:02:33;9.75;;;5.95;;
19848;SDS011;10085;51.120;6.956;2022-08-20T15:07:36;11.98;;;5.63;;
19848;SDS011;10085;51.120;6.956;2022-08-20T15:12:42;10.18;;;5.55;;
19848;SDS011;10085;51.120;6.956;2022-08-20T15:17:45;16.05;;;7.20;;
19848;SDS011;10085;51.120;6.956;2022-08-20T15:22:49;10.63;;;5.75;;
19848;SDS011;10085;51.120;6.956;2022-08-20T15:27:56;10.82;;;5.38;;
19848;SDS011;10085;51.120;6.956;2022-08-20T15:33:02;10.60;;;5.55;;
19848;SDS011;10085;51.120;6.956;2022-08-20T15:38:05;13.27;;;5.22;;
19848;SDS011;10085;51.120;6.956;2022-08-20T15:43:09;11.55;;;4.60;;
19848;SDS011;10085;51.120;6.956;2022-08-20T15:48:13;7.05;;;4.53;;
19848;SDS011;10085;51.120;6.956;2022-08-20T15:53:19;9.38;;;4.70;;
19848;SDS011;10085;51.120;6.956;2022-08-20T15:58:31;9.93;;;4.38;;
19848;SDS011;10085;51.120;6.956;2022-08-20T16:03:48;11.27;;;4.45;;
19848;SDS011;10085;51.120;6.956;2022-08-20T16:09:02;7.47;;;3.97;;
19848;SDS011;10085;51.120;6.956;2022-08-20T16:14:15;7.47;;;4.25;;
19848;SDS011;10085;51.120;6.956;2022-08-20T16:19:20;9.82;;;4.13;;
19848;SDS011;10085;51.120;6.956;2022-08-20T16:24:24;7.40;;;4.45;;
19848;SDS011;10085;51.120;6.956;2022-08-20T16:29:32;6.43;;;3.97;;
19848;SDS011;10085;51.120;6.956;2022-08-20T16:34:44;8.85;;;4.38;;
19848;SDS011;10085;51.120;6.956;2022-08-20T16:39:50;6.65;;;4.57;;
19848;SDS011;10085;51.120;6.956;2022-08-20T16:44:58;8.32;;;4.88;;
19848;SDS011;10085;51.120;6.956;2022-08-20T16:50:03;11.32;;;5.00;;
19848;SDS011;10085;51.120;6.956;2022-08-20T16:55:07;10.57;;;5.10;;
19848;SDS011;10085;51.120;6.956;2022-08-20T17:00:17;10.43;;;5.28;;
19848;SDS011;10085;51.120;6.956;2022-08-20T17:05:23;8.25;;;5.03;;
19848;SDS011;10085;51.120;6.956;2022-08-20T17:10:28;10.93;;;5.30;;
19848;SDS011;10085;51.120;6.956;2022-08-20T17:15:34;10.40;;;5.32;;
19848;SDS011;10085;51.120;6.956;2022-08-20T17:20:41;13.23;;;5.45;;
19848;SDS011;10085;51.120;6.956;2022-08-20T17:25:52;10.52;;;5.10;;
19848;SDS011;10085;51.120;6.956;2022-08-20T17:30:59;10.38;;;5.68;;
19848;SDS011;10085;51.120;6.956;2022-08-20T17:36:03;12.27;;;5.72;;
19848;SDS011;10085;51.120;6.956;2022-08-20T17:41:12;8.57;;;5.05;;
19848;SDS011;10085;51.120;6.956;2022-08-20T17:46:20;7.88;;;5.03;;
19848;SDS011;10085;51.120;6.956;2022-08-20T17:51:26;10.15;;;5.53;;
19848;SDS011;10085;51.120;6.956;2022-08-20T17:56:38;9.95;;;5.63;;
19848;SDS011;10085;51.120;6.956;2022-08-20T18:01:43;10.45;;;5.40;;
19848;SDS011;10085;51.120;6.956;2022-08-20T18:06:47;12.05;;;5.43;;
19848;SDS011;10085;51.120;6.956;2022-08-20T18:11:55;10.90;;;5.25;;
19848;SDS011;10085;51.120;6.956;2022-08-20T18:17:13;9.88;;;5.10;;
19848;SDS011;10085;51.120;6.956;2022-08-20T18:22:19;13.65;;;5.53;;
19848;SDS011;10085;51.120;6.956;2022-08-20T18:27:25;8.82;;;5.10;;
19848;SDS011;10085;51.120;6.956;2022-08-20T18:32:32;12.15;;;5.45;;
19848;SDS011;10085;51.120;6.956;2022-08-20T18:37:36;11.77;;;5.25;;
19848;SDS011;10085;51.120;6.956;2022-08-20T18:42:39;12.48;;;5.97;;
19848;SDS011;10085;51.120;6.956;2022-08-20T18:47:43;11.93;;;6.60;;
19848;SDS011;10085;51.120;6.956;2022-08-20T18:53:02;14.10;;;6.05;;
19848;SDS011;10085;51.120;6.956;2022-08-20T18:58:09;7.70;;;5.32;;
19848;SDS011;10085;51.120;6.956;2022-08-20T19:03:19;12.55;;;5.60;;
19848;SDS011;10085;51.120;6.956;2022-08-20T19:08:39;11.82;;;6.50;;
19848;SDS011;10085;51.120;6.956;2022-08-20T19:13:50;34.67;;;15.07;;
19848;SDS011;10085;51.120;6.956;2022-08-20T19:19:03;24.58;;;10.65;;
19848;SDS011;10085;51.120;6.956;2022-08-20T19:24:16;25.05;;;9.05;;
19848;SDS011;10085;51.120;6.956;2022-08-20T19:29:25;19.15;;;9.25;;
19848;SDS011;10085;51.120;6.956;2022-08-20T19:34:30;18.48;;;8.85;;
19848;SDS011;10085;51.120;6.956;2022-08-20T19:39:34;16.92;;;7.75;;
19848;SDS011;10085;51.120;6.956;2022-08-20T19:44:38;11.63;;;7.07;;
19848;SDS011;10085;51.120;6.956;2022-08-20T19:49:54;13.55;;;7.47;;
19848;SDS011;10085;51.120;6.956;2022-08-20T19:55:00;12.55;;;7.28;;
19848;SDS011;10085;51.120;6.956;2022-08-20T20:00:07;14.68;;;8.10;;
19848;SDS011;10085;51.120;6.956;2022-08-20T20:05:13;12.85;;;7.35;;
19848;SDS011;10085;51.120;6.956;2022-08-20T20:10:23;13.15;;;6.93;;
19848;SDS011;10085;51.120;6.956;2022-08-20T20:15:33;13.13;;;7.68;;
19848;SDS011;10085;51.120;6.956;2022-08-20T20:20:44;17.75;;;8.40;;
19848;SDS011;10085;51.120;6.956;2022-08-20T20:25:59;18.83;;;7.88;;
19848;SDS011;10085;51.120;6.956;2022-08-20T20:31:05;19.13;;;7.95;;
19848;SDS011;10085;51.120;6.956;2022-08-20T20:36:10;15.30;;;8.45;;
19848;SDS011;10085;51.120;6.956;2022-08-20T20:41:17;15.38;;;8.52;;
19848;SDS011;10085;51.120;6.956;2022-08-20T20:46:23;19.02;;;8.52;;
19848;SDS011;10085;51.120;6.956;2022-08-20T20:51:30;18.02;;;10.20;;
19848;SDS011;10085;51.120;6.956;2022-08-20T20:56:35;18.02;;;10.60;;
19848;SDS011;10085;51.120;6.956;2022-08-20T21:01:39;21.63;;;10.18;;
19848;SDS011;10085;51.120;6.956;2022-08-20T21:06:52;17.65;;;9.00;;
19848;SDS011;10085;51.120;6.956;2022-08-20T21:11:57;16.55;;;8.70;;
19848;SDS011;10085;51.120;6.956;2022-08-20T21:17:01;16.13;;;8.38;;
19848;SDS011;10085;51.120;6.956;2022-08-20T21:22:06;14.27;;;8.07;;
19848;SDS011;10085;51.120;6.956;2022-08-20T21:27:09;12.70;;;7.43;;
19848;SDS011;10085;51.120;6.956;2022-08-20T21:32:13;17.23;;;8.55;;
19848;SDS011;10085;51.120;6.956;2022-08-20T21:37:18;14.93;;;7.82;;
19848;SDS011;10085;51.120;6.956;2022-08-20T21:42:21;16.00;;;7.88;;
19848;SDS011;10085;51.120;6.956;2022-08-20T21:47:29;14.77;;;8.02;;
19848;SDS011;10085;51.120;6.956;2022-08-20T21:52:33;14.07;;;7.60;;
19848;SDS011;10085;51.120;6.956;2022-08-20T21:57:45;11.32;;;7.03;;
19848;SDS011;10085;51.120;6.956;2022-08-20T22:02:48;11.60;;;7.45;;
19848;SDS011;10085;51.120;6.956;2022-08-20T22:07:52;15.43;;;7.80;;
19848;SDS011;10085;51.120;6.956;2022-08-20T22:12:55;12.23;;;7.38;;
19848;SDS011;10085;51.120;6.956;2022-08-20T22:17:58;19.85;;;9.57;;
19848;SDS011;10085;51.120;6.956;2022-08-20T22:23:03;18.08;;;8.10;;
19848;SDS011;10085;51.120;6.956;2022-08-20T22:28:07;15.15;;;7.90;;
19848;SDS011;10085;51.120;6.956;2022-08-20T22:33:10;16.05;;;7.90;;
19848;SDS011;10085;51.120;6.956;2022-08-20T22:38:16;18.23;;;7.70;;
19848;SDS011;10085;51.120;6.956;2022-08-20T22:43:19;15.35;;;7.50;;
19848;SDS011;10085;51.120;6.956;2022-08-20T22:48:22;18.52;;;8.10;;
19848;SDS011;10085;51.120;6.956;2022-08-20T22:53:26;14.63;;;7.75;;
19848;SDS011;10085;51.120;6.956;2022-08-20T22:58:29;14.05;;;7.35;;
19848;SDS011;10085;51.120;6.956;2022-08-20T23:03:31;16.05;;;7.43;;
19848;SDS011;10085;51.120;6.956;2022-08-20T23:08:41;14.55;;;7.13;;
19848;SDS011;10085;51.120;6.956;2022-08-20T23:13:46;16.23;;;7.18;;
19848;SDS011;10085;51.120;6.956;2022-08-20T23:18:48;13.63;;;7.05;;
19848;SDS011;10085;51.120;6.956;2022-08-20T23:23:53;13.90;;;7.00;;
19848;SDS011;10085;51.120;6.956;2022-08-20T23:28:55;10.57;;;6.35;;
19848;SDS011;10085;51.120;6.956;2022-08-20T23:33:58;11.90;;;6.20;;
19848;SDS011;10085;51.120;6.956;2022-08-20T23:39:02;13.18;;;6.90;;
19848;SDS011;10085;51.120;6.956;2022-08-20T23:44:08;11.75;;;6.18;;
19848;SDS011;10085;51.120;6.956;2022-08-20T23:49:28;12.88;;;6.90;;
19848;SDS011;10085;51.120;6.956;2022-08-20T23:54:33;14.23;;;6.80;;
19848;SDS011;10085;51.120;6.956;2022-08-20T23:59:35;13.35;;;6.30;;
